createdAt,value
2017-11-27T00:02:11.741Z,101533
2017-11-27T00:04:40.246Z,101522
2017-11-27T00:07:09.101Z,101534
2017-11-27T00:09:37.265Z,101527
2017-11-27T00:12:05.396Z,101525
2017-11-27T00:14:33.729Z,101520
2017-11-27T00:17:01.982Z,101519
2017-11-27T00:19:30.195Z,101502
2017-11-27T00:21:58.344Z,101511
2017-11-27T00:24:26.522Z,101514
2017-11-27T00:26:54.637Z,101513
2017-11-27T00:29:22.819Z,101517
2017-11-27T00:31:50.968Z,101516
2017-11-27T00:34:19.282Z,101514
2017-11-27T00:36:47.432Z,101512
2017-11-27T00:39:15.565Z,101518
2017-11-27T00:41:43.808Z,101498
2017-11-27T00:44:12.062Z,101502
2017-11-27T00:46:40.136Z,101507
2017-11-27T00:49:08.386Z,101506
2017-11-27T00:51:36.609Z,101508
2017-11-27T00:54:04.720Z,101500
2017-11-27T00:56:33.033Z,101495
2017-11-27T00:59:01.190Z,101508
2017-11-27T01:01:30.081Z,101496
2017-11-27T01:03:59.042Z,101500
2017-11-27T01:06:27.253Z,101503
2017-11-27T01:08:56.249Z,101494
2017-11-27T01:11:25.120Z,101487
2017-11-27T01:13:53.321Z,101495
2017-11-27T01:16:21.545Z,101495
2017-11-27T01:18:49.791Z,101499
2017-11-27T01:21:18.201Z,101499
2017-11-27T01:23:46.393Z,101506
2017-11-27T01:26:14.469Z,101494
2017-11-27T01:28:42.664Z,101497
2017-11-27T01:31:10.843Z,101496
2017-11-27T01:33:39.744Z,101491
2017-11-27T01:36:07.853Z,101494
2017-11-27T01:38:36.060Z,101501
2017-11-27T01:41:04.227Z,101494
2017-11-27T01:43:32.451Z,101494
2017-11-27T01:46:00.529Z,101489
2017-11-27T01:48:28.624Z,101494
2017-11-27T01:50:56.924Z,101491
2017-11-27T01:53:25.117Z,101491
2017-11-27T01:55:54.054Z,101490
2017-11-27T01:58:22.163Z,101491
2017-11-27T02:00:50.279Z,101480
2017-11-27T02:03:18.489Z,101475
2017-11-27T02:05:46.589Z,101484
2017-11-27T02:08:15.001Z,101471
2017-11-27T02:10:43.137Z,101470
2017-11-27T02:13:11.358Z,101477
2017-11-27T02:15:39.533Z,101475
2017-11-27T02:18:07.633Z,101460
2017-11-27T02:20:35.704Z,101456
2017-11-27T02:23:03.930Z,101454
2017-11-27T02:25:32.024Z,101454
2017-11-27T02:28:00.161Z,101462
2017-11-27T02:30:28.374Z,101450
2017-11-27T02:32:57.654Z,101449
2017-11-27T02:35:25.836Z,101448
2017-11-27T02:37:54.005Z,101446
2017-11-27T02:40:22.867Z,101445
2017-11-27T02:42:50.996Z,101448
2017-11-27T02:45:19.074Z,101443
2017-11-27T02:47:47.154Z,101436
2017-11-27T02:50:15.230Z,101434
2017-11-27T02:52:43.372Z,101431
2017-11-27T02:55:11.579Z,101426
2017-11-27T02:57:39.673Z,101426
2017-11-27T03:00:07.908Z,101432
2017-11-27T03:02:35.998Z,101421
2017-11-27T03:05:04.141Z,101415
2017-11-27T03:07:32.274Z,101418
2017-11-27T03:10:01.324Z,101419
2017-11-27T03:12:29.776Z,101427
2017-11-27T03:14:58.711Z,101412
2017-11-27T03:17:26.878Z,101396
2017-11-27T03:19:55.031Z,101407
2017-11-27T03:22:23.181Z,101413
2017-11-27T03:24:52.116Z,101416
2017-11-27T03:27:20.215Z,101410
2017-11-27T03:29:48.397Z,101404
2017-11-27T03:32:16.545Z,101406
2017-11-27T03:34:44.648Z,101406
2017-11-27T03:37:12.825Z,101399
2017-11-27T03:39:40.925Z,101398
2017-11-27T03:42:09.077Z,101390
2017-11-27T03:44:37.178Z,101394
2017-11-27T03:47:05.516Z,101377
2017-11-27T03:49:34.023Z,101382
2017-11-27T03:52:02.205Z,101375
2017-11-27T03:54:31.088Z,101377
2017-11-27T03:56:59.269Z,101375
2017-11-27T03:59:27.425Z,101379
2017-11-27T04:01:56.424Z,101375
2017-11-27T04:04:24.599Z,101372
2017-11-27T04:06:52.767Z,101365
2017-11-27T04:09:21.662Z,101369
2017-11-27T04:11:50.679Z,101368
2017-11-27T04:14:18.812Z,101346
2017-11-27T04:16:46.995Z,101349
2017-11-27T04:19:15.175Z,101343
2017-11-27T04:21:44.077Z,101334
2017-11-27T04:24:13.444Z,101335
2017-11-27T04:26:41.650Z,101346
2017-11-27T04:29:10.549Z,101336
2017-11-27T04:31:39.453Z,101334
2017-11-27T04:34:07.552Z,101342
2017-11-27T04:36:35.642Z,101326
2017-11-27T04:39:03.753Z,101330
2017-11-27T04:41:33.677Z,101327
2017-11-27T04:44:01.852Z,101320
2017-11-27T04:46:30.006Z,101315
2017-11-27T04:48:58.091Z,101309
2017-11-27T04:51:26.397Z,101308
2017-11-27T04:53:54.524Z,101313
2017-11-27T04:56:23.218Z,101305
2017-11-27T04:58:52.098Z,101297
2017-11-27T05:01:20.272Z,101302
2017-11-27T05:03:49.169Z,101296
2017-11-27T05:06:18.153Z,101287
2017-11-27T05:08:46.396Z,101279
2017-11-27T05:11:14.531Z,101277
2017-11-27T05:13:43.446Z,101267
2017-11-27T05:16:11.585Z,101267
2017-11-27T05:18:40.465Z,101264
2017-11-27T05:21:08.538Z,101257
2017-11-27T05:23:36.788Z,101260
2017-11-27T05:26:04.869Z,101258
2017-11-27T05:28:33.062Z,101256
2017-11-27T05:31:02.024Z,101262
2017-11-27T05:33:30.089Z,101256
2017-11-27T05:35:58.313Z,101252
2017-11-27T05:38:27.233Z,101247
2017-11-27T05:40:55.333Z,101254
2017-11-27T05:43:23.422Z,101240
2017-11-27T05:45:51.571Z,101236
2017-11-27T05:48:19.665Z,101234
2017-11-27T05:50:47.839Z,101231
2017-11-27T05:53:16.036Z,101233
2017-11-27T05:55:44.936Z,101226
2017-11-27T05:58:13.113Z,101217
2017-11-27T06:00:41.199Z,101214
2017-11-27T06:03:09.532Z,101210
2017-11-27T06:05:37.986Z,101198
2017-11-27T06:08:06.131Z,101194
2017-11-27T06:10:34.293Z,101187
2017-11-27T06:13:03.208Z,101178
2017-11-27T06:15:31.345Z,101184
2017-11-27T06:17:59.528Z,101180
2017-11-27T06:20:28.564Z,101180
2017-11-27T06:22:56.634Z,101169
2017-11-27T06:25:24.774Z,101169
2017-11-27T06:27:52.897Z,101164
2017-11-27T06:30:25.093Z,101164
2017-11-27T06:32:53.258Z,101160
2017-11-27T06:35:22.481Z,101152
2017-11-27T06:37:51.372Z,101150
2017-11-27T06:40:19.464Z,101145
2017-11-27T06:42:47.614Z,101133
2017-11-27T06:45:15.812Z,101138
2017-11-27T06:47:43.903Z,101146
2017-11-27T06:50:12.007Z,101132
2017-11-27T06:52:40.111Z,101135
2017-11-27T06:55:09.000Z,101122
2017-11-27T06:57:37.887Z,101118
2017-11-27T07:00:06.035Z,101117
2017-11-27T07:02:34.222Z,101105
2017-11-27T07:05:02.397Z,101111
2017-11-27T07:07:31.356Z,101104
2017-11-27T07:09:59.461Z,101092
2017-11-27T07:12:27.636Z,101089
2017-11-27T07:14:56.005Z,101091
2017-11-27T07:17:24.085Z,101091
2017-11-27T07:19:52.572Z,101079
2017-11-27T07:22:20.791Z,101086
2017-11-27T07:24:48.872Z,101083
2017-11-27T07:27:17.113Z,101077
2017-11-27T07:29:46.077Z,101075
2017-11-27T07:32:14.248Z,101067
2017-11-27T07:34:42.353Z,101074
2017-11-27T07:37:10.553Z,101064
2017-11-27T07:39:44.261Z,101070
2017-11-27T07:42:12.367Z,101064
2017-11-27T07:44:40.557Z,101053
2017-11-27T07:47:09.454Z,101053
2017-11-27T07:49:38.525Z,101043
2017-11-27T07:52:07.050Z,101039
2017-11-27T07:54:35.230Z,101041
2017-11-27T07:57:03.453Z,101035
2017-11-27T07:59:31.710Z,101028
2017-11-27T08:01:59.880Z,101025
2017-11-27T08:04:28.110Z,101015
2017-11-27T08:06:57.018Z,101018
2017-11-27T08:09:25.176Z,101015
2017-11-27T08:11:54.047Z,101017
2017-11-27T08:14:22.232Z,100995
2017-11-27T08:16:50.666Z,100999
2017-11-27T08:19:18.742Z,100990
2017-11-27T08:21:47.049Z,100990
2017-11-27T08:24:15.260Z,100985
2017-11-27T08:26:43.462Z,100987
2017-11-27T08:29:11.608Z,100976
2017-11-27T08:31:39.960Z,100973
2017-11-27T08:34:08.116Z,100971
2017-11-27T08:36:36.323Z,100967
2017-11-27T08:39:05.362Z,100949
2017-11-27T08:41:33.748Z,100952
2017-11-27T08:44:02.038Z,100943
2017-11-27T08:46:30.217Z,100945
2017-11-27T08:48:58.389Z,100945
2017-11-27T08:51:26.724Z,100938
2017-11-27T08:53:54.944Z,100935
2017-11-27T08:56:23.028Z,100925
2017-11-27T08:58:51.186Z,100929
2017-11-27T09:01:19.389Z,100910
2017-11-27T09:03:47.705Z,100913
2017-11-27T09:06:15.773Z,100909
2017-11-27T09:08:43.945Z,100922
2017-11-27T09:11:12.094Z,100901
2017-11-27T09:13:40.267Z,100898
2017-11-27T09:16:09.140Z,100892
2017-11-27T09:18:37.350Z,100894
2017-11-27T09:21:05.460Z,100885
2017-11-27T09:23:33.697Z,100882
2017-11-27T09:26:01.777Z,100876
2017-11-27T09:28:29.905Z,100876
2017-11-27T09:30:58.098Z,100877
2017-11-27T09:33:27.036Z,100855
2017-11-27T09:35:55.192Z,100853
2017-11-27T09:38:23.319Z,100844
2017-11-27T09:40:51.685Z,100845
2017-11-27T09:43:19.896Z,100845
2017-11-27T09:45:48.772Z,100843
2017-11-27T09:48:17.664Z,100825
2017-11-27T09:50:45.833Z,100825
2017-11-27T09:53:14.685Z,100819
2017-11-27T09:55:42.941Z,100811
2017-11-27T09:58:11.027Z,100811
2017-11-27T10:00:39.186Z,100810
2017-11-27T10:03:07.787Z,100814
2017-11-27T10:05:35.873Z,100807
2017-11-27T10:08:04.090Z,100813
2017-11-27T10:10:32.949Z,100806
2017-11-27T10:13:01.149Z,100808
2017-11-27T10:15:29.353Z,100803
2017-11-27T10:17:57.479Z,100803
2017-11-27T10:20:25.951Z,100797
2017-11-27T10:22:54.031Z,100787
2017-11-27T10:25:22.168Z,100781
2017-11-27T10:27:50.322Z,100767
2017-11-27T10:30:18.433Z,100766
2017-11-27T10:32:46.544Z,100755
2017-11-27T10:35:14.829Z,100746
2017-11-27T10:37:43.977Z,100737
2017-11-27T10:40:12.448Z,100731
2017-11-27T10:42:40.568Z,100736
2017-11-27T10:45:09.453Z,100732
2017-11-27T10:47:38.457Z,100716
2017-11-27T10:50:06.527Z,100716
2017-11-27T10:52:34.669Z,100722
2017-11-27T10:55:02.805Z,100713
2017-11-27T10:57:30.890Z,100705
2017-11-27T10:59:59.018Z,100694
2017-11-27T11:02:27.184Z,100690
2017-11-27T11:04:56.082Z,100687
2017-11-27T11:07:25.043Z,100690
2017-11-27T11:09:53.150Z,100669
2017-11-27T11:12:22.023Z,100652
2017-11-27T11:14:50.278Z,100638
2017-11-27T11:17:18.371Z,100626
2017-11-27T11:19:46.575Z,100607
2017-11-27T11:22:14.787Z,100598
2017-11-27T11:24:42.941Z,100591
2017-11-27T11:27:11.126Z,100582
2017-11-27T11:29:39.233Z,100569
2017-11-27T11:32:07.486Z,100560
2017-11-27T11:34:35.603Z,100558
2017-11-27T11:37:03.687Z,100544
2017-11-27T11:39:31.783Z,100545
2017-11-27T11:41:59.900Z,100560
2017-11-27T11:44:28.308Z,100539
2017-11-27T11:46:57.270Z,100543
2017-11-27T11:49:25.350Z,100534
2017-11-27T11:51:53.476Z,100539
2017-11-27T11:54:21.601Z,100543
2017-11-27T11:56:49.696Z,100533
2017-11-27T11:59:17.840Z,100537
2017-11-27T12:01:45.917Z,100541
2017-11-27T12:04:14.093Z,100529
2017-11-27T12:06:42.177Z,100534
2017-11-27T12:09:11.065Z,100520
2017-11-27T12:11:39.268Z,100517
2017-11-27T12:14:07.411Z,100508
2017-11-27T12:16:35.576Z,100506
2017-11-27T12:19:03.644Z,100490
2017-11-27T12:21:32.053Z,100493
2017-11-27T12:24:00.977Z,100485
2017-11-27T12:26:29.100Z,100484
2017-11-27T12:28:57.299Z,100476
2017-11-27T12:31:25.458Z,100470
2017-11-27T12:33:53.629Z,100475
2017-11-27T12:36:22.510Z,100471
2017-11-27T12:38:50.577Z,100472
2017-11-27T12:41:18.677Z,100463
2017-11-27T12:43:46.816Z,100460
2017-11-27T12:46:15.198Z,100458
2017-11-27T12:48:44.289Z,100442
2017-11-27T12:51:12.487Z,100447
2017-11-27T12:53:41.448Z,100440
2017-11-27T12:56:09.637Z,100449
2017-11-27T12:58:37.834Z,100434
2017-11-27T13:01:06.758Z,100438
2017-11-27T13:03:35.632Z,100438
2017-11-27T13:06:03.707Z,100434
2017-11-27T13:08:31.864Z,100429
2017-11-27T13:11:00.744Z,100430
2017-11-27T13:13:28.931Z,100423
2017-11-27T13:15:57.838Z,100414
2017-11-27T13:18:26.003Z,100417
2017-11-27T13:20:54.107Z,100424
2017-11-27T13:23:22.182Z,100408
2017-11-27T13:25:50.256Z,100413
2017-11-27T13:28:18.458Z,100428
2017-11-27T13:30:46.599Z,100407
2017-11-27T13:33:14.719Z,100392
2017-11-27T13:35:43.644Z,100390
2017-11-27T13:38:11.793Z,100390
2017-11-27T13:40:40.664Z,100392
2017-11-27T13:43:09.013Z,100382
2017-11-27T13:45:37.396Z,100375
2017-11-27T13:48:05.480Z,100380
2017-11-27T13:50:33.912Z,100370
2017-11-27T13:53:02.181Z,100360
2017-11-27T13:55:30.322Z,100359
2017-11-27T13:57:58.448Z,100351
2017-11-27T14:00:26.516Z,100350
2017-11-27T14:02:54.842Z,100347
2017-11-27T14:05:23.035Z,100344
2017-11-27T14:07:51.953Z,100337
2017-11-27T14:10:20.033Z,100333
2017-11-27T14:12:48.173Z,100338
2017-11-27T14:15:17.057Z,100339
2017-11-27T14:17:45.228Z,100334
2017-11-27T14:20:14.261Z,100322
2017-11-27T14:22:42.452Z,100325
2017-11-27T14:25:10.703Z,100331
2017-11-27T14:27:38.825Z,100322
2017-11-27T14:30:07.165Z,100316
2017-11-27T14:32:35.266Z,100318
2017-11-27T14:35:03.510Z,100313
2017-11-27T14:37:31.572Z,100313
2017-11-27T14:39:59.733Z,100311
2017-11-27T14:42:27.897Z,100312
2017-11-27T14:44:56.797Z,100304
2017-11-27T14:47:25.218Z,100314
2017-11-27T14:49:53.287Z,100310
2017-11-27T14:52:21.412Z,100305
2017-11-27T14:54:50.286Z,100301
2017-11-27T14:57:18.421Z,100297
2017-11-27T14:59:46.571Z,100304
2017-11-27T15:02:14.697Z,100308
2017-11-27T15:04:42.894Z,100304
2017-11-27T15:07:10.992Z,100291
2017-11-27T15:09:41.065Z,100294
2017-11-27T15:12:09.213Z,100288
2017-11-27T15:14:37.286Z,100280
2017-11-27T15:17:05.752Z,100284
2017-11-27T15:19:33.866Z,100270
2017-11-27T15:22:02.133Z,100285
2017-11-27T15:24:30.461Z,100279
2017-11-27T15:26:58.656Z,100277
2017-11-27T15:29:26.960Z,100270
2017-11-27T15:31:55.117Z,100263
2017-11-27T15:34:23.325Z,100263
2017-11-27T15:36:51.391Z,100257
2017-11-27T15:39:19.505Z,100259
2017-11-27T15:41:47.716Z,100253
2017-11-27T15:44:16.002Z,100234
2017-11-27T15:46:44.152Z,100241
2017-11-27T15:49:12.286Z,100235
2017-11-27T15:51:41.223Z,100228
2017-11-27T15:54:09.398Z,100237
2017-11-27T15:56:37.605Z,100225
2017-11-27T15:59:05.770Z,100211
2017-11-27T16:01:34.199Z,100224
2017-11-27T16:04:02.439Z,100221
2017-11-27T16:06:30.683Z,100235
2017-11-27T16:08:58.762Z,100222
2017-11-27T16:11:27.085Z,100211
2017-11-27T16:13:55.980Z,100210
2017-11-27T16:16:24.119Z,100217
2017-11-27T16:18:52.232Z,100200
2017-11-27T16:21:20.374Z,100203
2017-11-27T16:23:48.521Z,100194
2017-11-27T16:26:16.772Z,100194
2017-11-27T16:28:44.930Z,100186
2017-11-27T16:31:13.020Z,100200
2017-11-27T16:33:41.149Z,100183
2017-11-27T16:36:09.333Z,100183
2017-11-27T16:38:38.205Z,100181
2017-11-27T16:41:06.653Z,100179
2017-11-27T16:43:34.721Z,100165
2017-11-27T16:46:02.853Z,100163
2017-11-27T16:48:31.007Z,100161
2017-11-27T16:50:59.098Z,100154
2017-11-27T16:53:28.033Z,100152
2017-11-27T16:55:56.425Z,100165
2017-11-27T16:58:24.660Z,100169
2017-11-27T17:00:52.795Z,100159
2017-11-27T17:03:20.992Z,100161
2017-11-27T17:05:49.884Z,100155
2017-11-27T17:08:18.099Z,100151
2017-11-27T17:10:46.269Z,100164
2017-11-27T17:13:14.417Z,100155
2017-11-27T17:15:42.653Z,100147
2017-11-27T17:18:11.791Z,100146
2017-11-27T17:20:39.930Z,100145
2017-11-27T17:23:08.014Z,100150
2017-11-27T17:25:36.917Z,100140
2017-11-27T17:28:05.194Z,100147
2017-11-27T17:30:34.112Z,100154
2017-11-27T17:33:02.996Z,100147
2017-11-27T17:35:31.234Z,100143
2017-11-27T17:37:59.405Z,100141
2017-11-27T17:40:27.656Z,100147
2017-11-27T17:42:55.854Z,100144
2017-11-27T17:45:24.014Z,100145
2017-11-27T17:47:52.165Z,100140
2017-11-27T17:50:20.399Z,100138
2017-11-27T17:52:48.471Z,100133
2017-11-27T17:55:16.929Z,100126
2017-11-27T17:57:45.141Z,100133
2017-11-27T18:00:13.241Z,100134
2017-11-27T18:02:41.345Z,100122
2017-11-27T18:05:09.693Z,100127
2017-11-27T18:07:37.925Z,100115
2017-11-27T18:10:06.808Z,100111
2017-11-27T18:12:35.735Z,100099
2017-11-27T18:15:03.895Z,100107
2017-11-27T18:17:32.071Z,100095
2017-11-27T18:20:00.172Z,100090
2017-11-27T18:22:28.250Z,100097
2017-11-27T18:24:56.377Z,100090
2017-11-27T18:27:24.548Z,100092
2017-11-27T18:29:53.432Z,100090
2017-11-27T18:32:22.304Z,100080
2017-11-27T18:34:50.418Z,100078
2017-11-27T18:37:18.728Z,100087
2017-11-27T18:39:46.813Z,100085
2017-11-27T18:42:14.981Z,100089
2017-11-27T18:44:43.218Z,100088
2017-11-27T18:47:11.389Z,100088
2017-11-27T18:49:39.556Z,100079
2017-11-27T18:52:07.654Z,100080
2017-11-27T18:54:35.801Z,100081
2017-11-27T18:57:03.989Z,100082
2017-11-27T18:59:32.085Z,100088
2017-11-27T19:02:00.321Z,100079
2017-11-27T19:04:29.308Z,100064
2017-11-27T19:06:58.201Z,100061
2017-11-27T19:09:27.097Z,100060
2017-11-27T19:11:55.292Z,100053
2017-11-27T19:14:23.570Z,100054
2017-11-27T19:16:51.715Z,100059
2017-11-27T19:19:20.605Z,100062
2017-11-27T19:21:48.807Z,100053
2017-11-27T19:24:16.874Z,100060
2017-11-27T19:26:44.973Z,100053
2017-11-27T19:29:13.218Z,100063
2017-11-27T19:31:41.323Z,100050
2017-11-27T19:34:09.631Z,100048
2017-11-27T19:36:37.852Z,100046
2017-11-27T19:39:26.586Z,100047
2017-11-27T19:41:56.278Z,100041
2017-11-27T19:44:25.163Z,100046
2017-11-27T19:46:53.346Z,100042
2017-11-27T19:49:22.365Z,100047
2017-11-27T19:51:50.580Z,100048
2017-11-27T19:54:18.946Z,100044
2017-11-27T19:56:47.169Z,100034
2017-11-27T19:59:15.349Z,100038
2017-11-27T20:01:44.333Z,100025
2017-11-27T20:04:12.636Z,100022
2017-11-27T20:06:41.176Z,100021
2017-11-27T20:09:09.535Z,100016
2017-11-27T20:11:37.657Z,100009
2017-11-27T20:14:05.820Z,100014
2017-11-27T20:16:34.790Z,100008
2017-11-27T20:19:02.969Z,100006
2017-11-27T20:21:31.192Z,100010
2017-11-27T20:24:00.091Z,100019
2017-11-27T20:26:28.242Z,99994
2017-11-27T20:28:57.305Z,100002
2017-11-27T20:31:25.398Z,100002
2017-11-27T20:33:54.393Z,100003
2017-11-27T20:36:22.737Z,100000
2017-11-27T20:38:50.844Z,100006
2017-11-27T20:41:19.756Z,100005
2017-11-27T20:43:47.881Z,100001
2017-11-27T20:46:16.088Z,99996
2017-11-27T20:48:45.413Z,99988
2017-11-27T20:51:13.526Z,99986
2017-11-27T20:53:41.757Z,99973
2017-11-27T20:56:10.029Z,99989
2017-11-27T20:58:38.115Z,99987
2017-11-27T21:01:06.413Z,99975
2017-11-27T21:03:34.514Z,99973
2017-11-27T21:06:02.754Z,99976
2017-11-27T21:08:30.833Z,99977
2017-11-27T21:10:59.109Z,99968
2017-11-27T21:13:27.186Z,99970
2017-11-27T21:15:55.388Z,99958
2017-11-27T21:18:23.484Z,99966
2017-11-27T21:20:51.648Z,99955
2017-11-27T21:23:20.561Z,99946
2017-11-27T21:25:48.645Z,99945
2017-11-27T21:28:16.934Z,99933
2017-11-27T21:30:45.266Z,99946
2017-11-27T21:33:14.257Z,99936
2017-11-27T21:35:42.481Z,99931
2017-11-27T21:38:10.556Z,99933
2017-11-27T21:40:39.412Z,99944
2017-11-27T21:43:07.695Z,100025
2017-11-27T21:45:35.866Z,99995
2017-11-27T21:48:04.003Z,100003
2017-11-27T21:50:32.230Z,100003
2017-11-27T21:53:00.387Z,99997
2017-11-27T21:55:28.936Z,99988
2017-11-27T21:57:57.020Z,99988
2017-11-27T22:00:25.953Z,99983
2017-11-27T22:02:54.162Z,99983
2017-11-27T22:05:22.344Z,99986
2017-11-27T22:07:50.419Z,99978
2017-11-27T22:10:18.614Z,99972
2017-11-27T22:12:48.467Z,99969
2017-11-27T22:15:16.572Z,99964
2017-11-27T22:17:44.733Z,99977
2017-11-27T22:20:13.842Z,99982
2017-11-27T22:22:42.203Z,99994
2017-11-27T22:25:10.525Z,99978
2017-11-27T22:27:39.397Z,99977
2017-11-27T22:30:07.514Z,99984
2017-11-27T22:32:35.580Z,99987
2017-11-27T22:35:03.768Z,99994
2017-11-27T22:37:31.840Z,99987
2017-11-27T22:40:00.040Z,99981
2017-11-27T22:42:28.424Z,99980
2017-11-27T22:44:57.508Z,99995
2017-11-27T22:47:26.521Z,99994
2017-11-27T22:49:54.586Z,99999
2017-11-27T22:52:22.711Z,99998
2017-11-27T22:54:50.784Z,99998
2017-11-27T22:57:20.585Z,100000
2017-11-27T22:59:48.666Z,99994
2017-11-27T23:02:16.725Z,99991
2017-11-27T23:04:45.590Z,99991
2017-11-27T23:07:13.754Z,99987
2017-11-27T23:09:42.241Z,99989
2017-11-27T23:12:10.455Z,99993
2017-11-27T23:14:38.531Z,99987
2017-11-27T23:17:06.916Z,99980
2017-11-27T23:19:35.009Z,99997
2017-11-27T23:22:03.105Z,99977
2017-11-27T23:24:31.165Z,99973
2017-11-27T23:26:59.237Z,99961
2017-11-27T23:29:27.394Z,99965
2017-11-27T23:31:55.497Z,99953
2017-11-27T23:34:23.577Z,99947
2017-11-27T23:36:51.708Z,99938
2017-11-27T23:39:19.785Z,99935
2017-11-27T23:41:47.869Z,99945
2017-11-27T23:44:16.479Z,99948
2017-11-27T23:46:45.549Z,99942
2017-11-27T23:49:13.651Z,99937
2017-11-27T23:51:41.747Z,99936
2017-11-27T23:54:09.810Z,99938
2017-11-27T23:56:37.993Z,99935
2017-11-27T23:59:06.068Z,99949
